sensor_id;sensor_type;location;lat;lon;timestamp;pressure;altitude;pressure_sealevel;temperature;humidity
83025;BME280;72958;53.326;-1.496;2024-02-16T00:01:35;98371.38;;;11.67;57.60
83025;BME280;72958;53.326;-1.496;2024-02-16T00:04:12;98374.04;;;11.55;58.11
83025;BME280;72958;53.326;-1.496;2024-02-16T00:06:49;98375.22;;;12.45;56.77
83025;BME280;72958;53.326;-1.496;2024-02-16T00:09:15;98378.05;;;11.74;56.76
83025;BME280;72958;53.326;-1.496;2024-02-16T00:11:42;98382.13;;;11.95;58.65
83025;BME280;72958;53.326;-1.496;2024-02-16T00:14:09;98388.72;;;12.41;58.88
83025;BME280;72958;53.326;-1.496;2024-02-16T00:16:53;98395.43;;;11.08;61.29
83025;BME280;72958;53.326;-1.496;2024-02-16T00:19:24;98396.59;;;11.75;59.52
83025;BME280;72958;53.326;-1.496;2024-02-16T00:21:51;98397.52;;;11.38;59.79
83025;BME280;72958;53.326;-1.496;2024-02-16T00:24:17;98400.09;;;11.07;61.28
83025;BME280;72958;53.326;-1.496;2024-02-16T00:26:41;98399.17;;;11.23;61.16
83025;BME280;72958;53.326;-1.496;2024-02-16T00:29:07;98403.16;;;10.92;61.55
83025;BME280;72958;53.326;-1.496;2024-02-16T00:31:33;98405.48;;;10.88;62.30
83025;BME280;72958;53.326;-1.496;2024-02-16T00:34:22;98407.53;;;11.32;61.29
83025;BME280;72958;53.326;-1.496;2024-02-16T00:36:53;98409.57;;;11.41;60.11
83025;BME280;72958;53.326;-1.496;2024-02-16T00:39:24;98408.04;;;11.38;59.92
83025;BME280;72958;53.326;-1.496;2024-02-16T00:41:50;98411.97;;;11.44;59.84
83025;BME280;72958;53.326;-1.496;2024-02-16T00:44:30;98410.23;;;11.85;59.66
83025;BME280;72958;53.326;-1.496;2024-02-16T00:47:02;98410.57;;;11.55;59.83
83025;BME280;72958;53.326;-1.496;2024-02-16T00:49:30;98412.77;;;10.82;61.67
83025;BME280;72958;53.326;-1.496;2024-02-16T00:52:06;98411.38;;;10.35;62.87
83025;BME280;72958;53.326;-1.496;2024-02-16T00:54:48;98415.82;;;11.00;61.46
83025;BME280;72958;53.326;-1.496;2024-02-16T00:57:30;98417.43;;;11.31;60.09
83025;BME280;72958;53.326;-1.496;2024-02-16T01:00:07;98421.79;;;11.40;60.05
83025;BME280;72958;53.326;-1.496;2024-02-16T01:02:34;98426.81;;;10.52;61.34
83025;BME280;72958;53.326;-1.496;2024-02-16T01:05:15;98428.07;;;11.47;61.23
83025;BME280;72958;53.326;-1.496;2024-02-16T01:07:43;98425.40;;;10.80;60.97
83025;BME280;72958;53.326;-1.496;2024-02-16T01:10:08;98421.32;;;11.14;60.30
83025;BME280;72958;53.326;-1.496;2024-02-16T01:12:34;98420.72;;;11.21;60.03
83025;BME280;72958;53.326;-1.496;2024-02-16T01:15:10;98418.31;;;11.77;58.82
83025;BME280;72958;53.326;-1.496;2024-02-16T01:17:45;98418.73;;;11.70;58.87
83025;BME280;72958;53.326;-1.496;2024-02-16T01:20:18;98418.64;;;11.87;58.32
83025;BME280;72958;53.326;-1.496;2024-02-16T01:22:49;98420.22;;;11.83;57.40
83025;BME280;72958;53.326;-1.496;2024-02-16T01:25:24;98420.04;;;11.56;57.89
83025;BME280;72958;53.326;-1.496;2024-02-16T01:27:51;98424.43;;;11.67;57.50
83025;BME280;72958;53.326;-1.496;2024-02-16T01:30:48;98425.87;;;11.92;57.04
83025;BME280;72958;53.326;-1.496;2024-02-16T01:33:24;98426.27;;;11.86;56.66
83025;BME280;72958;53.326;-1.496;2024-02-16T01:35:48;98422.58;;;12.18;56.34
83025;BME280;72958;53.326;-1.496;2024-02-16T01:38:50;98418.83;;;11.99;56.61
83025;BME280;72958;53.326;-1.496;2024-02-16T01:41:24;98415.78;;;11.92;56.69
83025;BME280;72958;53.326;-1.496;2024-02-16T01:44:05;98420.09;;;11.41;57.17
83025;BME280;72958;53.326;-1.496;2024-02-16T01:46:33;98422.80;;;11.18;58.22
83025;BME280;72958;53.326;-1.496;2024-02-16T01:48:59;98423.48;;;11.44;58.89
83025;BME280;72958;53.326;-1.496;2024-02-16T01:51:27;98413.32;;;11.96;57.50
83025;BME280;72958;53.326;-1.496;2024-02-16T01:53:54;98418.43;;;11.52;57.60
83025;BME280;72958;53.326;-1.496;2024-02-16T01:56:57;98416.34;;;11.80;57.31
83025;BME280;72958;53.326;-1.496;2024-02-16T01:59:31;98411.60;;;11.91;57.39
83025;BME280;72958;53.326;-1.496;2024-02-16T02:02:11;98412.60;;;12.11;56.51
83025;BME280;72958;53.326;-1.496;2024-02-16T02:05:08;98414.77;;;11.79;58.09
83025;BME280;72958;53.326;-1.496;2024-02-16T02:07:35;98418.77;;;11.31;58.47
83025;BME280;72958;53.326;-1.496;2024-02-16T02:10:11;98428.58;;;11.35;59.10
83025;BME280;72958;53.326;-1.496;2024-02-16T02:12:35;98433.07;;;11.51;58.77
83025;BME280;72958;53.326;-1.496;2024-02-16T02:15:07;98435.34;;;11.41;58.12
83025;BME280;72958;53.326;-1.496;2024-02-16T02:17:41;98437.75;;;11.05;58.90
83025;BME280;72958;53.326;-1.496;2024-02-16T02:20:09;98434.53;;;11.13;58.25
83025;BME280;72958;53.326;-1.496;2024-02-16T02:22:42;98429.29;;;11.45;57.64
83025;BME280;72958;53.326;-1.496;2024-02-16T02:25:54;98432.44;;;11.27;58.48
83025;BME280;72958;53.326;-1.496;2024-02-16T02:28:28;98442.37;;;11.67;57.36
83025;BME280;72958;53.326;-1.496;2024-02-16T02:31:13;98451.40;;;11.67;57.83
83025;BME280;72958;53.326;-1.496;2024-02-16T02:33:47;98458.05;;;11.89;57.38
83025;BME280;72958;53.326;-1.496;2024-02-16T02:36:13;98456.83;;;10.99;58.59
83025;BME280;72958;53.326;-1.496;2024-02-16T02:39:06;98455.87;;;11.49;58.10
83025;BME280;72958;53.326;-1.496;2024-02-16T02:41:34;98458.95;;;11.64;58.29
83025;BME280;72958;53.326;-1.496;2024-02-16T02:44:07;98457.77;;;11.44;57.49
83025;BME280;72958;53.326;-1.496;2024-02-16T02:46:39;98458.99;;;11.10;58.70
83025;BME280;72958;53.326;-1.496;2024-02-16T02:49:07;98461.22;;;11.48;58.34
83025;BME280;72958;53.326;-1.496;2024-02-16T02:52:03;98465.42;;;11.39;59.03
83025;BME280;72958;53.326;-1.496;2024-02-16T02:54:28;98464.93;;;11.01;58.36
83025;BME280;72958;53.326;-1.496;2024-02-16T02:56:59;98476.73;;;11.59;57.65
83025;BME280;72958;53.326;-1.496;2024-02-16T02:59:31;98491.41;;;10.92;59.01
83025;BME280;72958;53.326;-1.496;2024-02-16T03:01:56;98487.20;;;12.04;56.63
83025;BME280;72958;53.326;-1.496;2024-02-16T03:04:33;98486.75;;;11.88;57.09
83025;BME280;72958;53.326;-1.496;2024-02-16T03:07:32;98476.13;;;11.38;57.30
83025;BME280;72958;53.326;-1.496;2024-02-16T03:10:02;98466.65;;;12.05;55.50
83025;BME280;72958;53.326;-1.496;2024-02-16T03:12:35;98467.04;;;12.03;55.86
83025;BME280;72958;53.326;-1.496;2024-02-16T03:15:18;98476.67;;;12.09;54.76
83025;BME280;72958;53.326;-1.496;2024-02-16T03:17:47;98477.21;;;11.52;56.42
83025;BME280;72958;53.326;-1.496;2024-02-16T03:20:15;98469.94;;;11.55;56.70
83025;BME280;72958;53.326;-1.496;2024-02-16T03:22:42;98461.10;;;11.67;56.06
83025;BME280;72958;53.326;-1.496;2024-02-16T03:25:08;98455.28;;;11.92;55.43
83025;BME280;72958;53.326;-1.496;2024-02-16T03:27:34;98461.77;;;11.31;57.50
83025;BME280;72958;53.326;-1.496;2024-02-16T03:30:29;98476.18;;;11.82;56.64
83025;BME280;72958;53.326;-1.496;2024-02-16T03:32:53;98486.90;;;11.19;57.58
83025;BME280;72958;53.326;-1.496;2024-02-16T03:35:23;98490.59;;;11.44;57.69
83025;BME280;72958;53.326;-1.496;2024-02-16T03:37:48;98494.99;;;11.62;56.99
83025;BME280;72958;53.326;-1.496;2024-02-16T03:40:14;98498.69;;;12.13;56.42
83025;BME280;72958;53.326;-1.496;2024-02-16T03:42:40;98500.82;;;11.69;56.86
83025;BME280;72958;53.326;-1.496;2024-02-16T03:45:27;98506.24;;;10.74;58.71
83025;BME280;72958;53.326;-1.496;2024-02-16T03:48:07;98509.15;;;11.25;58.18
83025;BME280;72958;53.326;-1.496;2024-02-16T03:50:31;98508.74;;;11.39;56.50
83025;BME280;72958;53.326;-1.496;2024-02-16T03:53:00;98514.97;;;11.03;57.86
83025;BME280;72958;53.326;-1.496;2024-02-16T03:55:29;98514.59;;;10.88;59.61
83025;BME280;72958;53.326;-1.496;2024-02-16T03:58:04;98523.07;;;10.77;58.91
83025;BME280;72958;53.326;-1.496;2024-02-16T04:00:29;98528.84;;;11.21;58.31
83025;BME280;72958;53.326;-1.496;2024-02-16T04:02:54;98518.88;;;10.68;59.45
83025;BME280;72958;53.326;-1.496;2024-02-16T04:05:34;98517.15;;;10.83;58.87
83025;BME280;72958;53.326;-1.496;2024-02-16T04:08:06;98514.63;;;11.08;58.34
83025;BME280;72958;53.326;-1.496;2024-02-16T04:10:32;98517.88;;;11.09;58.94
83025;BME280;72958;53.326;-1.496;2024-02-16T04:12:58;98521.89;;;10.66;60.31
83025;BME280;72958;53.326;-1.496;2024-02-16T04:15:24;98526.62;;;10.24;60.25
83025;BME280;72958;53.326;-1.496;2024-02-16T04:17:49;98536.61;;;10.49;60.84
83025;BME280;72958;53.326;-1.496;2024-02-16T04:20:24;98540.00;;;10.67;59.99
83025;BME280;72958;53.326;-1.496;2024-02-16T04:22:52;98537.54;;;10.93;59.12
83025;BME280;72958;53.326;-1.496;2024-02-16T04:25:18;98539.95;;;10.80;59.22
83025;BME280;72958;53.326;-1.496;2024-02-16T04:28:18;98540.99;;;12.19;57.12
83025;BME280;72958;53.326;-1.496;2024-02-16T04:30:58;98542.12;;;11.60;57.78
83025;BME280;72958;53.326;-1.496;2024-02-16T04:33:34;98542.57;;;11.38;57.70
83025;BME280;72958;53.326;-1.496;2024-02-16T04:36:25;98546.97;;;12.61;55.72
83025;BME280;72958;53.326;-1.496;2024-02-16T04:38:59;98548.19;;;11.89;56.12
83025;BME280;72958;53.326;-1.496;2024-02-16T04:41:43;98550.98;;;12.09;55.67
83025;BME280;72958;53.326;-1.496;2024-02-16T04:44:12;98554.81;;;12.26;56.04
83025;BME280;72958;53.326;-1.496;2024-02-16T04:46:59;98562.44;;;10.86;59.64
83025;BME280;72958;53.326;-1.496;2024-02-16T04:49:31;98564.81;;;11.29;58.76
83025;BME280;72958;53.326;-1.496;2024-02-16T04:51:59;98566.50;;;11.77;57.68
83025;BME280;72958;53.326;-1.496;2024-02-16T04:54:26;98570.12;;;11.23;58.58
83025;BME280;72958;53.326;-1.496;2024-02-16T04:57:05;98579.83;;;10.56;59.69
83025;BME280;72958;53.326;-1.496;2024-02-16T04:59:33;98585.61;;;11.22;58.84
83025;BME280;72958;53.326;-1.496;2024-02-16T05:02:11;98586.85;;;11.37;58.86
83025;BME280;72958;53.326;-1.496;2024-02-16T05:04:46;98586.94;;;11.27;58.26
83025;BME280;72958;53.326;-1.496;2024-02-16T05:07:12;98591.37;;;11.68;58.35
83025;BME280;72958;53.326;-1.496;2024-02-16T05:09:58;98597.59;;;11.84;57.70
83025;BME280;72958;53.326;-1.496;2024-02-16T05:12:24;98602.21;;;10.54;60.42
83025;BME280;72958;53.326;-1.496;2024-02-16T05:14:49;98603.04;;;11.37;59.02
83025;BME280;72958;53.326;-1.496;2024-02-16T05:17:41;98606.88;;;10.71;61.67
83025;BME280;72958;53.326;-1.496;2024-02-16T05:20:29;98609.67;;;10.69;60.55
83025;BME280;72958;53.326;-1.496;2024-02-16T05:22:55;98614.56;;;10.82;60.27
83025;BME280;72958;53.326;-1.496;2024-02-16T05:25:51;98619.19;;;10.39;61.14
83025;BME280;72958;53.326;-1.496;2024-02-16T05:28:21;98626.17;;;9.91;61.59
83025;BME280;72958;53.326;-1.496;2024-02-16T05:30:49;98625.15;;;10.31;60.26
83025;BME280;72958;53.326;-1.496;2024-02-16T05:33:26;98627.90;;;10.54;59.12
83025;BME280;72958;53.326;-1.496;2024-02-16T05:36:03;98624.41;;;10.04;60.22
83025;BME280;72958;53.326;-1.496;2024-02-16T05:38:28;98630.32;;;10.41;58.58
83025;BME280;72958;53.326;-1.496;2024-02-16T05:40:55;98637.85;;;10.59;57.98
83025;BME280;72958;53.326;-1.496;2024-02-16T05:43:51;98635.03;;;10.62;56.75
83025;BME280;72958;53.326;-1.496;2024-02-16T05:46:35;98643.16;;;10.77;56.89
83025;BME280;72958;53.326;-1.496;2024-02-16T05:49:15;98648.84;;;10.50;56.43
83025;BME280;72958;53.326;-1.496;2024-02-16T05:51:48;98652.41;;;9.88;57.64
83025;BME280;72958;53.326;-1.496;2024-02-16T05:54:23;98659.00;;;10.31;56.37
83025;BME280;72958;53.326;-1.496;2024-02-16T05:57:11;98664.05;;;10.90;55.51
83025;BME280;72958;53.326;-1.496;2024-02-16T05:59:42;98670.04;;;11.59;54.28
83025;BME280;72958;53.326;-1.496;2024-02-16T06:02:15;98676.35;;;10.62;55.24
83025;BME280;72958;53.326;-1.496;2024-02-16T06:04:49;98678.86;;;10.68;55.53
83025;BME280;72958;53.326;-1.496;2024-02-16T06:07:15;98681.38;;;10.89;54.58
83025;BME280;72958;53.326;-1.496;2024-02-16T06:09:43;98682.98;;;10.72;54.66
83025;BME280;72958;53.326;-1.496;2024-02-16T06:12:14;98678.75;;;10.97;54.47
83025;BME280;72958;53.326;-1.496;2024-02-16T06:14:46;98684.45;;;10.61;55.10
83025;BME280;72958;53.326;-1.496;2024-02-16T06:17:13;98688.09;;;10.71;54.09
83025;BME280;72958;53.326;-1.496;2024-02-16T06:19:38;98690.03;;;10.77;53.82
83025;BME280;72958;53.326;-1.496;2024-02-16T06:22:06;98687.92;;;10.93;52.76
83025;BME280;72958;53.326;-1.496;2024-02-16T06:24:33;98694.60;;;10.51;54.06
83025;BME280;72958;53.326;-1.496;2024-02-16T06:27:09;98701.71;;;11.55;51.80
83025;BME280;72958;53.326;-1.496;2024-02-16T06:29:36;98700.69;;;10.76;53.56
83025;BME280;72958;53.326;-1.496;2024-02-16T06:32:35;98700.33;;;9.60;56.91
83025;BME280;72958;53.326;-1.496;2024-02-16T06:35:15;98701.63;;;9.90;55.95
83025;BME280;72958;53.326;-1.496;2024-02-16T06:37:43;98704.77;;;9.49;57.98
83025;BME280;72958;53.326;-1.496;2024-02-16T06:40:26;98703.58;;;9.01;58.42
83025;BME280;72958;53.326;-1.496;2024-02-16T06:43:03;98707.59;;;9.24;58.95
83025;BME280;72958;53.326;-1.496;2024-02-16T06:45:34;98710.71;;;8.87;58.28
83025;BME280;72958;53.326;-1.496;2024-02-16T06:48:06;98714.73;;;8.90;58.62
83025;BME280;72958;53.326;-1.496;2024-02-16T06:50:42;98721.88;;;8.44;60.03
83025;BME280;72958;53.326;-1.496;2024-02-16T06:53:07;98729.54;;;8.05;61.00
83025;BME280;72958;53.326;-1.496;2024-02-16T06:55:35;98732.36;;;8.29;60.99
83025;BME280;72958;53.326;-1.496;2024-02-16T06:58:04;98731.18;;;9.50;58.47
83025;BME280;72958;53.326;-1.496;2024-02-16T07:00:30;98738.12;;;8.46;59.65
83025;BME280;72958;53.326;-1.496;2024-02-16T07:02:55;98742.99;;;8.72;59.11
83025;BME280;72958;53.326;-1.496;2024-02-16T07:05:23;98745.17;;;8.28;58.26
83025;BME280;72958;53.326;-1.496;2024-02-16T07:08:05;98750.12;;;8.52;58.54
83025;BME280;72958;53.326;-1.496;2024-02-16T07:10:30;98751.64;;;8.55;59.26
83025;BME280;72958;53.326;-1.496;2024-02-16T07:13:04;98752.77;;;8.38;59.23
83025;BME280;72958;53.326;-1.496;2024-02-16T07:15:40;98754.57;;;7.88;59.83
83025;BME280;72958;53.326;-1.496;2024-02-16T07:18:07;98756.33;;;8.99;58.31
83025;BME280;72958;53.326;-1.496;2024-02-16T07:20:37;98762.80;;;8.11;59.71
83025;BME280;72958;53.326;-1.496;2024-02-16T07:23:07;98766.02;;;8.88;58.18
83025;BME280;72958;53.326;-1.496;2024-02-16T07:25:36;98779.16;;;7.97;61.62
83025;BME280;72958;53.326;-1.496;2024-02-16T07:28:22;98793.73;;;8.14;61.35
83025;BME280;72958;53.326;-1.496;2024-02-16T07:30:50;98800.27;;;7.96;60.97
83025;BME280;72958;53.326;-1.496;2024-02-16T07:33:14;98804.75;;;8.21;60.95
83025;BME280;72958;53.326;-1.496;2024-02-16T07:35:55;98812.00;;;8.18;60.15
83025;BME280;72958;53.326;-1.496;2024-02-16T07:38:25;98813.94;;;8.60;58.79
83025;BME280;72958;53.326;-1.496;2024-02-16T07:41:05;98820.07;;;9.48;56.54
83025;BME280;72958;53.326;-1.496;2024-02-16T07:43:43;98824.48;;;8.88;57.53
83025;BME280;72958;53.326;-1.496;2024-02-16T07:46:15;98827.94;;;8.82;56.62
83025;BME280;72958;53.326;-1.496;2024-02-16T07:48:42;98830.75;;;8.92;56.29
83025;BME280;72958;53.326;-1.496;2024-02-16T07:51:18;98837.02;;;9.37;54.49
83025;BME280;72958;53.326;-1.496;2024-02-16T07:54:12;98833.14;;;8.82;55.13
83025;BME280;72958;53.326;-1.496;2024-02-16T07:56:43;98834.26;;;8.35;57.67
83025;BME280;72958;53.326;-1.496;2024-02-16T07:59:10;98841.62;;;8.73;56.60
83025;BME280;72958;53.326;-1.496;2024-02-16T08:01:38;98847.05;;;8.48;56.07
83025;BME280;72958;53.326;-1.496;2024-02-16T08:04:03;98850.82;;;8.85;55.86
83025;BME280;72958;53.326;-1.496;2024-02-16T08:06:31;98858.73;;;8.68;56.26
83025;BME280;72958;53.326;-1.496;2024-02-16T08:09:02;98863.02;;;8.86;56.63
83025;BME280;72958;53.326;-1.496;2024-02-16T08:11:34;98872.61;;;8.37;57.63
83025;BME280;72958;53.326;-1.496;2024-02-16T08:14:06;98874.21;;;8.25;57.97
83025;BME280;72958;53.326;-1.496;2024-02-16T08:16:32;98873.14;;;8.13;58.21
83025;BME280;72958;53.326;-1.496;2024-02-16T08:18:58;98878.11;;;8.01;58.60
83025;BME280;72958;53.326;-1.496;2024-02-16T08:21:31;98884.37;;;8.52;57.35
83025;BME280;72958;53.326;-1.496;2024-02-16T08:24:06;98885.07;;;8.02;59.19
83025;BME280;72958;53.326;-1.496;2024-02-16T08:26:45;98883.14;;;8.29;58.17
83025;BME280;72958;53.326;-1.496;2024-02-16T08:29:22;98884.19;;;8.91;56.76
83025;BME280;72958;53.326;-1.496;2024-02-16T08:31:51;98890.83;;;8.31;57.50
83025;BME280;72958;53.326;-1.496;2024-02-16T08:34:27;98891.74;;;8.99;56.77
83025;BME280;72958;53.326;-1.496;2024-02-16T08:37:07;98900.50;;;9.86;55.17
83025;BME280;72958;53.326;-1.496;2024-02-16T08:39:39;98907.89;;;9.85;55.95
83025;BME280;72958;53.326;-1.496;2024-02-16T08:42:06;98909.88;;;9.98;55.08
83025;BME280;72958;53.326;-1.496;2024-02-16T08:44:32;98911.67;;;9.96;54.49
83025;BME280;72958;53.326;-1.496;2024-02-16T08:47:07;98908.39;;;10.23;53.02
83025;BME280;72958;53.326;-1.496;2024-02-16T08:49:35;98919.05;;;10.70;52.42
83025;BME280;72958;53.326;-1.496;2024-02-16T08:52:06;98924.42;;;11.99;49.43
83025;BME280;72958;53.326;-1.496;2024-02-16T08:54:35;98925.20;;;10.88;51.05
83025;BME280;72958;53.326;-1.496;2024-02-16T08:57:16;98925.81;;;11.90;50.99
83025;BME280;72958;53.326;-1.496;2024-02-16T08:59:39;98930.40;;;11.65;50.96
83025;BME280;72958;53.326;-1.496;2024-02-16T09:02:27;98936.20;;;11.42;50.19
83025;BME280;72958;53.326;-1.496;2024-02-16T09:04:53;98939.52;;;11.62;50.54
83025;BME280;72958;53.326;-1.496;2024-02-16T09:07:31;98939.20;;;12.32;49.90
83025;BME280;72958;53.326;-1.496;2024-02-16T09:09:57;98941.81;;;12.28;48.83
83025;BME280;72958;53.326;-1.496;2024-02-16T09:12:32;98948.24;;;11.89;50.28
83025;BME280;72958;53.326;-1.496;2024-02-16T09:14:58;98948.15;;;12.65;48.72
83025;BME280;72958;53.326;-1.496;2024-02-16T09:17:25;98953.86;;;12.32;48.99
83025;BME280;72958;53.326;-1.496;2024-02-16T09:19:54;98959.12;;;11.77;51.28
83025;BME280;72958;53.326;-1.496;2024-02-16T09:22:35;98968.19;;;10.63;53.43
83025;BME280;72958;53.326;-1.496;2024-02-16T09:25:07;98971.70;;;10.26;55.21
83025;BME280;72958;53.326;-1.496;2024-02-16T09:27:34;98976.46;;;11.67;51.77
83025;BME280;72958;53.326;-1.496;2024-02-16T09:30:22;98984.86;;;10.96;53.01
83025;BME280;72958;53.326;-1.496;2024-02-16T09:32:48;98990.04;;;10.77;53.72
83025;BME280;72958;53.326;-1.496;2024-02-16T09:35:15;98991.11;;;10.94;52.91
83025;BME280;72958;53.326;-1.496;2024-02-16T09:37:52;98998.30;;;12.15;51.42
83025;BME280;72958;53.326;-1.496;2024-02-16T09:40:24;99003.74;;;11.33;52.10
83025;BME280;72958;53.326;-1.496;2024-02-16T09:43:05;99013.42;;;10.27;56.68
83025;BME280;72958;53.326;-1.496;2024-02-16T09:45:51;99015.70;;;10.12;56.94
83025;BME280;72958;53.326;-1.496;2024-02-16T09:48:14;99020.42;;;10.50;56.21
83025;BME280;72958;53.326;-1.496;2024-02-16T09:53:12;99029.02;;;10.12;56.82
83025;BME280;72958;53.326;-1.496;2024-02-16T09:55:44;99029.18;;;11.46;53.90
83025;BME280;72958;53.326;-1.496;2024-02-16T09:58:25;99029.42;;;10.36;56.13
83025;BME280;72958;53.326;-1.496;2024-02-16T10:00:54;99036.37;;;9.93;57.86
83025;BME280;72958;53.326;-1.496;2024-02-16T10:03:59;99032.96;;;9.49;58.44
83025;BME280;72958;53.326;-1.496;2024-02-16T10:06:22;99029.07;;;9.79;58.69
83025;BME280;72958;53.326;-1.496;2024-02-16T10:08:50;99028.36;;;10.87;56.41
83025;BME280;72958;53.326;-1.496;2024-02-16T10:11:19;99033.44;;;11.05;54.43
83025;BME280;72958;53.326;-1.496;2024-02-16T10:13:55;99040.21;;;11.02;54.51
83025;BME280;72958;53.326;-1.496;2024-02-16T10:16:24;99038.09;;;11.34;54.14
83025;BME280;72958;53.326;-1.496;2024-02-16T10:18:55;99042.50;;;10.63;54.23
83025;BME280;72958;53.326;-1.496;2024-02-16T10:22:07;99048.89;;;11.46;52.31
83025;BME280;72958;53.326;-1.496;2024-02-16T10:24:34;99051.19;;;11.69;50.23
83025;BME280;72958;53.326;-1.496;2024-02-16T10:27:14;99047.06;;;11.99;51.65
83025;BME280;72958;53.326;-1.496;2024-02-16T10:29:44;99045.67;;;11.12;52.80
83025;BME280;72958;53.326;-1.496;2024-02-16T10:32:11;99054.74;;;10.68;54.05
83025;BME280;72958;53.326;-1.496;2024-02-16T10:34:45;99053.04;;;11.49;51.15
83025;BME280;72958;53.326;-1.496;2024-02-16T10:37:20;99049.67;;;11.26;52.48
83025;BME280;72958;53.326;-1.496;2024-02-16T10:39:54;99058.35;;;10.22;54.46
83025;BME280;72958;53.326;-1.496;2024-02-16T10:42:19;99052.96;;;10.77;53.36
83025;BME280;72958;53.326;-1.496;2024-02-16T10:45:28;99049.86;;;11.86;50.29
83025;BME280;72958;53.326;-1.496;2024-02-16T10:48:08;99056.47;;;10.54;54.75
83025;BME280;72958;53.326;-1.496;2024-02-16T10:50:39;99054.82;;;11.47;51.98
83025;BME280;72958;53.326;-1.496;2024-02-16T10:53:09;99063.68;;;12.01;50.09
83025;BME280;72958;53.326;-1.496;2024-02-16T10:55:44;99062.86;;;12.10;50.82
83025;BME280;72958;53.326;-1.496;2024-02-16T10:58:27;99084.99;;;10.66;52.33
83025;BME280;72958;53.326;-1.496;2024-02-16T11:00:54;99075.64;;;10.41;54.84
83025;BME280;72958;53.326;-1.496;2024-02-16T11:03:25;99079.19;;;11.45;51.83
83025;BME280;72958;53.326;-1.496;2024-02-16T11:06:15;99095.30;;;10.47;54.95
83025;BME280;72958;53.326;-1.496;2024-02-16T11:09:35;99089.27;;;12.73;51.08
83025;BME280;72958;53.326;-1.496;2024-02-16T11:12:00;99096.76;;;14.22;46.43
83025;BME280;72958;53.326;-1.496;2024-02-16T11:14:35;99103.12;;;13.80;46.40
83025;BME280;72958;53.326;-1.496;2024-02-16T11:17:23;99123.12;;;13.29;46.39
83025;BME280;72958;53.326;-1.496;2024-02-16T11:20:17;99127.74;;;13.30;47.21
83025;BME280;72958;53.326;-1.496;2024-02-16T11:23:33;99139.40;;;11.71;50.29
83025;BME280;72958;53.326;-1.496;2024-02-16T11:26:08;99139.83;;;12.11;50.82
83025;BME280;72958;53.326;-1.496;2024-02-16T11:28:32;99153.54;;;12.60;49.03
83025;BME280;72958;53.326;-1.496;2024-02-16T11:31:00;99155.29;;;13.35;48.17
83025;BME280;72958;53.326;-1.496;2024-02-16T11:33:46;99162.14;;;13.76;46.80
83025;BME280;72958;53.326;-1.496;2024-02-16T11:36:21;99173.91;;;13.24;47.80
83025;BME280;72958;53.326;-1.496;2024-02-16T11:38:49;99178.24;;;12.11;50.04
83025;BME280;72958;53.326;-1.496;2024-02-16T11:41:16;99171.56;;;12.53;49.81
83025;BME280;72958;53.326;-1.496;2024-02-16T11:44:00;99173.23;;;12.63;48.32
83025;BME280;72958;53.326;-1.496;2024-02-16T11:46:22;99191.64;;;12.43;48.75
83025;BME280;72958;53.326;-1.496;2024-02-16T11:48:53;99187.72;;;11.90;50.42
83025;BME280;72958;53.326;-1.496;2024-02-16T11:52:01;99183.26;;;11.57;52.02
83025;BME280;72958;53.326;-1.496;2024-02-16T11:54:44;99183.38;;;10.75;53.36
83025;BME280;72958;53.326;-1.496;2024-02-16T11:57:27;99188.06;;;10.99;51.28
83025;BME280;72958;53.326;-1.496;2024-02-16T11:59:55;99188.38;;;11.20;52.70
83025;BME280;72958;53.326;-1.496;2024-02-16T12:02:25;99186.18;;;11.32;50.99
83025;BME280;72958;53.326;-1.496;2024-02-16T12:05:26;99195.84;;;11.07;52.13
83025;BME280;72958;53.326;-1.496;2024-02-16T12:07:52;99190.77;;;12.49;49.38
83025;BME280;72958;53.326;-1.496;2024-02-16T12:10:19;99189.40;;;13.09;47.55
83025;BME280;72958;53.326;-1.496;2024-02-16T12:12:55;99188.81;;;13.21;47.42
83025;BME280;72958;53.326;-1.496;2024-02-16T12:15:28;99190.17;;;13.07;47.07
83025;BME280;72958;53.326;-1.496;2024-02-16T12:18:20;99198.31;;;12.09;48.91
83025;BME280;72958;53.326;-1.496;2024-02-16T12:21:00;99205.36;;;11.40;52.04
83025;BME280;72958;53.326;-1.496;2024-02-16T12:23:24;99207.27;;;10.04;54.37
83025;BME280;72958;53.326;-1.496;2024-02-16T12:26:15;99212.00;;;11.91;51.53
83025;BME280;72958;53.326;-1.496;2024-02-16T12:28:42;99206.14;;;11.57;52.38
83025;BME280;72958;53.326;-1.496;2024-02-16T12:31:10;99217.11;;;10.92;53.50
83025;BME280;72958;53.326;-1.496;2024-02-16T12:33:37;99212.72;;;11.28;52.84
83025;BME280;72958;53.326;-1.496;2024-02-16T12:36:07;99210.66;;;11.91;50.80
83025;BME280;72958;53.326;-1.496;2024-02-16T12:38:45;99214.62;;;12.68;48.53
83025;BME280;72958;53.326;-1.496;2024-02-16T12:41:12;99212.19;;;13.12;47.60
83025;BME280;72958;53.326;-1.496;2024-02-16T12:43:59;99216.00;;;12.75;48.62
83025;BME280;72958;53.326;-1.496;2024-02-16T12:46:32;99219.61;;;12.48;49.42
83025;BME280;72958;53.326;-1.496;2024-02-16T12:49:04;99213.80;;;13.40;48.16
83025;BME280;72958;53.326;-1.496;2024-02-16T12:51:31;99215.17;;;15.02;42.97
83025;BME280;72958;53.326;-1.496;2024-02-16T12:54:24;99226.80;;;14.89;43.94
83025;BME280;72958;53.326;-1.496;2024-02-16T12:56:56;99226.14;;;13.72;46.36
83025;BME280;72958;53.326;-1.496;2024-02-16T12:59:33;99230.89;;;13.73;46.26
83025;BME280;72958;53.326;-1.496;2024-02-16T13:02:12;99236.49;;;12.95;47.92
83025;BME280;72958;53.326;-1.496;2024-02-16T13:05:00;99230.26;;;13.80;46.37
83025;BME280;72958;53.326;-1.496;2024-02-16T13:07:28;99239.56;;;13.84;46.43
83025;BME280;72958;53.326;-1.496;2024-02-16T13:10:14;99243.38;;;13.35;49.48
83025;BME280;72958;53.326;-1.496;2024-02-16T13:12:41;99251.37;;;12.09;52.86
83025;BME280;72958;53.326;-1.496;2024-02-16T13:15:15;99254.96;;;11.72;55.03
83025;BME280;72958;53.326;-1.496;2024-02-16T13:17:41;99247.77;;;11.48;54.65
83025;BME280;72958;53.326;-1.496;2024-02-16T13:20:18;99251.99;;;11.90;52.08
83025;BME280;72958;53.326;-1.496;2024-02-16T13:23:05;99252.42;;;12.53;51.18
83025;BME280;72958;53.326;-1.496;2024-02-16T13:26:11;99260.76;;;11.79;51.93
83025;BME280;72958;53.326;-1.496;2024-02-16T13:28:52;99255.73;;;12.27;51.44
83025;BME280;72958;53.326;-1.496;2024-02-16T13:31:27;99260.97;;;13.01;50.44
83025;BME280;72958;53.326;-1.496;2024-02-16T13:33:53;99281.40;;;13.59;47.60